createdAt,value
2017-12-17T00:00:32.248Z,93.50
2017-12-17T00:02:58.543Z,92.98
2017-12-17T00:05:24.758Z,92.57
2017-12-17T00:07:50.992Z,92.47
2017-12-17T00:10:17.635Z,92.87
2017-12-17T00:12:43.828Z,93.55
2017-12-17T00:15:09.996Z,93.55
2017-12-17T00:17:36.218Z,93.48
2017-12-17T00:20:02.769Z,92.79
2017-12-17T00:22:28.954Z,93.17
2017-12-17T00:24:55.155Z,93.04
2017-12-17T00:27:21.451Z,93.20
2017-12-17T00:29:47.610Z,92.92
2017-12-17T00:32:13.825Z,92.63
2017-12-17T00:34:40.023Z,92.80
2017-12-17T00:37:06.203Z,92.67
2017-12-17T00:39:32.568Z,92.54
2017-12-17T00:41:59.009Z,93.63
2017-12-17T00:44:25.250Z,93.49
2017-12-17T00:46:51.667Z,93.15
2017-12-17T00:49:17.832Z,92.63
2017-12-17T00:51:44.127Z,92.44
2017-12-17T00:54:10.562Z,92.71
2017-12-17T00:56:36.744Z,92.79
2017-12-17T00:59:03.032Z,93.04
2017-12-17T01:01:29.445Z,92.91
2017-12-17T01:03:55.980Z,92.23
2017-12-17T01:06:22.536Z,91.95
2017-12-17T01:08:48.917Z,92.39
2017-12-17T01:11:15.089Z,91.84
2017-12-17T01:13:41.264Z,91.15
2017-12-17T01:16:07.617Z,91.44
2017-12-17T01:18:33.889Z,92.11
2017-12-17T01:21:00.111Z,92.08
2017-12-17T01:23:26.340Z,91.45
2017-12-17T01:25:52.568Z,91.85
2017-12-17T01:28:18.755Z,92.03
2017-12-17T01:30:44.973Z,92.26
2017-12-17T01:33:11.158Z,92.25
2017-12-17T01:35:37.332Z,93.19
2017-12-17T01:38:03.544Z,91.94
2017-12-17T01:40:29.711Z,91.98
2017-12-17T01:42:55.887Z,91.52
2017-12-17T01:45:22.093Z,91.87
2017-12-17T01:47:48.272Z,91.58
2017-12-17T01:50:14.439Z,90.55
2017-12-17T01:52:40.639Z,91.03
2017-12-17T01:55:06.818Z,91.25
2017-12-17T01:57:33.071Z,92.35
2017-12-17T01:59:59.301Z,92.96
2017-12-17T02:02:25.480Z,92.86
2017-12-17T02:04:51.649Z,93.63
2017-12-17T02:07:17.871Z,92.21
2017-12-17T02:09:44.037Z,91.11
2017-12-17T02:12:10.210Z,91.54
2017-12-17T02:14:36.437Z,91.75
2017-12-17T02:17:02.604Z,92.19
2017-12-17T02:19:28.962Z,91.69
2017-12-17T02:21:55.167Z,91.71
2017-12-17T02:24:21.331Z,92.65
2017-12-17T02:26:47.508Z,92.85
2017-12-17T02:29:13.719Z,91.77
2017-12-17T02:31:39.882Z,91.98
2017-12-17T02:34:06.058Z,92.45
2017-12-17T02:36:32.276Z,92.53
2017-12-17T02:38:58.563Z,92.46
2017-12-17T02:41:24.742Z,92.73
2017-12-17T02:43:50.942Z,93.01
2017-12-17T02:46:17.115Z,93.52
2017-12-17T02:48:43.285Z,93.61
2017-12-17T02:51:09.504Z,93.38
2017-12-17T02:53:35.714Z,93.46
2017-12-17T02:56:01.908Z,93.75
2017-12-17T02:58:28.133Z,94.28
2017-12-17T03:00:54.316Z,94.13
2017-12-17T03:03:20.495Z,93.97
2017-12-17T03:05:46.718Z,93.40
2017-12-17T03:08:12.894Z,94.04
2017-12-17T03:10:39.169Z,93.59
2017-12-17T03:13:05.390Z,92.77
2017-12-17T03:15:31.590Z,92.70
2017-12-17T03:17:57.759Z,93.36
2017-12-17T03:20:23.982Z,93.50
2017-12-17T03:22:50.160Z,93.16
2017-12-17T03:25:16.341Z,92.91
2017-12-17T03:27:42.566Z,92.76
2017-12-17T03:30:08.760Z,92.32
2017-12-17T03:32:34.944Z,92.08
2017-12-17T03:35:01.163Z,93.08
2017-12-17T03:37:27.327Z,91.77
2017-12-17T03:39:53.515Z,91.75
2017-12-17T03:42:19.718Z,90.25
2017-12-17T03:44:45.887Z,90.87
2017-12-17T03:47:12.062Z,91.31
2017-12-17T03:49:38.383Z,92.15
2017-12-17T03:52:04.565Z,91.83
2017-12-17T03:54:30.750Z,92.66
2017-12-17T03:56:57.093Z,92.36
2017-12-17T03:59:23.279Z,93.81
2017-12-17T04:01:49.452Z,94.33
2017-12-17T04:04:15.660Z,93.68
2017-12-17T04:06:41.846Z,93.40
2017-12-17T04:09:08.014Z,93.32
2017-12-17T04:11:34.250Z,93.39
2017-12-17T04:14:00.430Z,93.04
2017-12-17T04:16:26.584Z,93.13
2017-12-17T04:18:52.796Z,92.96
2017-12-17T04:21:19.169Z,92.34
2017-12-17T04:23:45.340Z,92.44
2017-12-17T04:26:11.560Z,93.11
2017-12-17T04:28:37.747Z,93.14
2017-12-17T04:31:03.920Z,93.94
2017-12-17T04:33:30.313Z,92.62
2017-12-17T04:35:56.479Z,92.14
2017-12-17T04:38:22.769Z,92.36
2017-12-17T04:40:48.979Z,92.90
2017-12-17T04:43:15.160Z,93.26
2017-12-17T04:45:41.346Z,93.23
2017-12-17T04:48:07.569Z,93.34
2017-12-17T04:50:33.740Z,92.96
2017-12-17T04:52:59.905Z,92.61
2017-12-17T04:55:26.159Z,92.25
2017-12-17T04:57:52.339Z,92.25
2017-12-17T05:00:18.590Z,92.57
2017-12-17T05:02:44.810Z,92.97
2017-12-17T05:05:10.991Z,92.80
2017-12-17T05:07:37.160Z,92.43
2017-12-17T05:10:03.494Z,92.71
2017-12-17T05:12:29.668Z,92.60
2017-12-17T05:14:55.845Z,93.37
2017-12-17T05:17:22.056Z,93.67
2017-12-17T05:19:48.255Z,93.15
2017-12-17T05:22:14.428Z,92.39
2017-12-17T05:24:40.631Z,92.32
2017-12-17T05:27:06.812Z,92.46
2017-12-17T05:29:33.000Z,92.47
2017-12-17T05:31:59.217Z,92.92
2017-12-17T05:34:25.406Z,92.81
2017-12-17T05:36:51.584Z,93.02
2017-12-17T05:39:17.805Z,93.03
2017-12-17T05:41:44.039Z,92.81
2017-12-17T05:44:10.184Z,93.44
2017-12-17T05:46:36.387Z,93.52
2017-12-17T05:49:02.570Z,93.64
2017-12-17T05:51:28.766Z,93.97
2017-12-17T05:53:54.967Z,94.02
2017-12-17T05:56:21.140Z,93.70
2017-12-17T05:58:47.294Z,93.32
2017-12-17T06:01:13.504Z,93.00
2017-12-17T06:03:39.739Z,92.36
2017-12-17T06:06:05.908Z,92.64
2017-12-17T06:08:32.118Z,92.65
2017-12-17T06:10:58.286Z,93.40
2017-12-17T06:13:24.455Z,92.45
2017-12-17T06:15:50.713Z,92.44
2017-12-17T06:18:16.899Z,92.85
2017-12-17T06:20:43.062Z,92.48
2017-12-17T06:23:09.282Z,92.73
2017-12-17T06:25:35.469Z,93.99
2017-12-17T06:28:01.632Z,93.32
2017-12-17T06:30:27.842Z,92.38
2017-12-17T06:32:54.016Z,93.01
2017-12-17T06:35:20.196Z,93.66
2017-12-17T06:37:46.397Z,94.72
2017-12-17T06:40:12.565Z,93.35
2017-12-17T06:42:38.749Z,92.91
2017-12-17T06:45:04.962Z,93.05
2017-12-17T06:47:31.126Z,90.79
2017-12-17T06:49:57.293Z,90.64
2017-12-17T06:52:23.509Z,90.24
2017-12-17T06:54:49.701Z,89.93
2017-12-17T06:57:15.876Z,91.70
2017-12-17T06:59:42.084Z,91.28
2017-12-17T07:02:08.248Z,91.21
2017-12-17T07:04:34.418Z,90.73
2017-12-17T07:07:00.628Z,91.37
2017-12-17T07:09:26.802Z,91.48
2017-12-17T07:11:53.090Z,91.68
2017-12-17T07:14:19.310Z,92.60
2017-12-17T07:16:45.489Z,93.27
2017-12-17T07:19:11.650Z,91.70
2017-12-17T07:21:37.862Z,90.71
2017-12-17T07:24:04.036Z,90.66
2017-12-17T07:26:30.220Z,90.61
2017-12-17T07:28:56.482Z,90.45
2017-12-17T07:31:22.656Z,90.21
2017-12-17T07:33:48.849Z,90.69
2017-12-17T07:36:15.071Z,90.65
2017-12-17T07:38:41.260Z,91.06
2017-12-17T07:41:07.458Z,91.14
2017-12-17T07:43:33.689Z,90.58
2017-12-17T07:45:59.891Z,89.76
2017-12-17T07:48:26.080Z,89.55
2017-12-17T07:50:52.288Z,89.78
2017-12-17T07:53:18.486Z,89.19
2017-12-17T07:55:44.677Z,89.72
2017-12-17T07:58:10.887Z,90.50
2017-12-17T08:00:37.082Z,90.89
2017-12-17T08:03:03.274Z,92.10
2017-12-17T08:05:29.491Z,90.80
2017-12-17T08:07:55.683Z,91.61
2017-12-17T08:10:21.876Z,91.21
2017-12-17T08:12:48.084Z,91.60
2017-12-17T08:15:14.252Z,91.00
2017-12-17T08:17:40.438Z,90.92
2017-12-17T08:20:06.656Z,90.20
2017-12-17T08:22:32.851Z,90.41
2017-12-17T08:24:59.042Z,90.04
2017-12-17T08:27:25.262Z,90.13
2017-12-17T08:29:51.444Z,90.89
2017-12-17T08:32:17.704Z,90.75
2017-12-17T08:34:43.934Z,90.25
2017-12-17T08:37:10.115Z,91.51
2017-12-17T08:39:36.291Z,90.66
2017-12-17T08:42:02.516Z,91.01
2017-12-17T08:44:28.720Z,91.03
2017-12-17T08:46:54.915Z,90.71
2017-12-17T08:49:21.143Z,91.40
2017-12-17T08:51:47.326Z,89.87
2017-12-17T08:54:13.717Z,90.09
2017-12-17T08:56:39.961Z,90.81
2017-12-17T08:59:06.150Z,90.62
2017-12-17T09:01:32.336Z,89.72
2017-12-17T09:03:58.554Z,90.32
2017-12-17T09:06:24.849Z,90.59
2017-12-17T09:08:51.176Z,91.70
2017-12-17T09:11:17.614Z,91.71
2017-12-17T09:13:43.827Z,91.75
2017-12-17T09:16:10.075Z,91.50
2017-12-17T09:18:36.503Z,91.45
2017-12-17T09:21:02.725Z,92.46
2017-12-17T09:23:28.931Z,91.92
2017-12-17T09:25:55.196Z,91.22
2017-12-17T09:28:21.396Z,91.72
2017-12-17T09:30:47.629Z,90.79
2017-12-17T09:33:14.062Z,90.80
2017-12-17T09:35:40.287Z,90.73
2017-12-17T09:38:06.652Z,91.07
2017-12-17T09:40:32.890Z,90.58
2017-12-17T09:42:59.311Z,90.88
2017-12-17T09:45:25.755Z,91.14
2017-12-17T09:47:52.164Z,91.23
2017-12-17T09:50:18.357Z,90.81
2017-12-17T09:52:44.610Z,91.10
2017-12-17T09:55:10.850Z,91.06
2017-12-17T09:57:37.068Z,90.60
2017-12-17T10:00:03.260Z,91.67
2017-12-17T10:02:29.491Z,91.95
2017-12-17T10:04:55.867Z,91.54
2017-12-17T10:07:22.100Z,91.44
2017-12-17T10:09:48.280Z,91.14
2017-12-17T10:12:14.526Z,91.29
2017-12-17T10:14:40.704Z,90.97
2017-12-17T10:17:07.217Z,91.75
2017-12-17T10:19:33.504Z,93.13
2017-12-17T10:21:59.687Z,93.21
2017-12-17T10:24:25.910Z,91.97
2017-12-17T10:26:52.120Z,90.90
2017-12-17T10:29:18.789Z,92.41
2017-12-17T10:31:44.988Z,92.19
2017-12-17T10:34:11.430Z,91.91
2017-12-17T10:36:37.620Z,91.90
2017-12-17T10:39:03.800Z,91.64
2017-12-17T10:41:30.103Z,92.18
2017-12-17T10:43:56.366Z,92.15
2017-12-17T10:46:22.721Z,91.84
2017-12-17T10:48:48.919Z,91.53
2017-12-17T10:51:15.115Z,91.26
2017-12-17T10:53:41.313Z,91.06
2017-12-17T10:56:07.543Z,89.78
2017-12-17T10:58:33.723Z,90.47
2017-12-17T11:00:59.905Z,90.66
2017-12-17T11:03:26.118Z,90.19
2017-12-17T11:05:52.416Z,89.82
2017-12-17T11:08:18.622Z,90.19
2017-12-17T11:10:45.058Z,90.41
2017-12-17T11:13:11.226Z,91.04
2017-12-17T11:15:37.430Z,90.16
2017-12-17T11:18:03.663Z,90.85
2017-12-17T11:20:29.986Z,91.77
2017-12-17T11:22:56.170Z,91.74
2017-12-17T11:25:22.373Z,92.31
2017-12-17T11:27:48.571Z,92.24
2017-12-17T11:30:14.796Z,92.74
2017-12-17T11:32:40.999Z,92.42
2017-12-17T11:35:07.193Z,91.83
2017-12-17T11:37:33.385Z,92.17
2017-12-17T11:39:59.593Z,91.90
2017-12-17T11:42:25.786Z,91.76
2017-12-17T11:44:52.004Z,92.11
2017-12-17T11:47:18.176Z,92.41
2017-12-17T11:49:44.408Z,92.33
2017-12-17T11:52:10.588Z,91.92
2017-12-17T11:54:36.766Z,91.83
2017-12-17T11:57:02.949Z,91.35
2017-12-17T11:59:29.173Z,91.17
2017-12-17T12:01:55.360Z,91.61
2017-12-17T12:04:21.543Z,91.86
2017-12-17T12:06:47.772Z,92.29
2017-12-17T12:09:13.953Z,91.74
2017-12-17T12:11:40.142Z,91.58
2017-12-17T12:14:06.340Z,90.97
2017-12-17T12:16:32.609Z,90.59
2017-12-17T12:18:58.793Z,89.76
2017-12-17T12:21:25.023Z,89.82
2017-12-17T12:23:51.217Z,90.04
2017-12-17T12:26:17.580Z,90.56
2017-12-17T12:28:43.794Z,90.03
2017-12-17T12:31:10.002Z,90.18
2017-12-17T12:33:36.185Z,90.49
2017-12-17T12:36:02.401Z,89.82
2017-12-17T12:38:28.567Z,89.84
2017-12-17T12:40:55.026Z,90.94
2017-12-17T12:43:21.249Z,90.86
2017-12-17T12:45:47.429Z,90.14
2017-12-17T12:48:13.611Z,89.41
2017-12-17T12:50:39.851Z,89.50
2017-12-17T12:53:06.034Z,90.45
2017-12-17T12:55:32.223Z,91.06
2017-12-17T12:57:58.447Z,91.42
2017-12-17T13:00:24.654Z,91.57
2017-12-17T13:02:50.860Z,91.45
2017-12-17T13:05:17.121Z,91.67
2017-12-17T13:07:43.516Z,91.01
2017-12-17T13:10:09.765Z,91.01
2017-12-17T13:12:36.036Z,91.50
2017-12-17T13:15:02.208Z,90.85
2017-12-17T13:17:28.390Z,89.98
2017-12-17T13:19:54.605Z,90.68
2017-12-17T13:22:20.792Z,91.42
2017-12-17T13:24:46.978Z,91.30
2017-12-17T13:27:13.213Z,91.95
2017-12-17T13:29:39.422Z,92.15
2017-12-17T13:32:05.724Z,92.15
2017-12-17T13:34:32.007Z,92.85
2017-12-17T13:36:58.348Z,92.91
2017-12-17T13:39:24.611Z,92.57
2017-12-17T13:41:50.821Z,92.87
2017-12-17T13:44:17.005Z,93.45
2017-12-17T13:46:43.216Z,93.04
2017-12-17T13:49:09.486Z,93.48
2017-12-17T13:51:35.684Z,93.72
2017-12-17T13:54:01.881Z,93.56
2017-12-17T13:56:28.171Z,92.92
2017-12-17T13:58:54.369Z,93.24
2017-12-17T14:01:20.610Z,93.79
2017-12-17T14:03:46.841Z,94.33
2017-12-17T14:06:13.019Z,94.44
2017-12-17T14:08:39.230Z,95.05
2017-12-17T14:11:05.497Z,95.46
2017-12-17T14:13:31.719Z,95.08
2017-12-17T14:15:58.008Z,94.52
2017-12-17T14:18:24.269Z,94.46
2017-12-17T14:20:50.687Z,94.02
2017-12-17T14:23:16.882Z,93.88
2017-12-17T14:25:43.126Z,93.82
2017-12-17T14:28:09.335Z,93.46
2017-12-17T14:30:35.613Z,93.83
2017-12-17T14:33:02.045Z,93.79
2017-12-17T14:35:28.260Z,93.71
2017-12-17T14:37:54.443Z,93.33
2017-12-17T14:40:20.661Z,92.96
2017-12-17T14:42:46.865Z,92.59
2017-12-17T14:45:13.181Z,93.16
2017-12-17T14:47:39.423Z,93.01
2017-12-17T14:50:05.627Z,92.55
2017-12-17T14:52:31.862Z,92.78
2017-12-17T14:54:58.086Z,92.44
2017-12-17T14:57:24.275Z,93.12
2017-12-17T14:59:50.465Z,92.77
2017-12-17T15:02:16.691Z,92.20
2017-12-17T15:04:42.987Z,92.46
2017-12-17T15:07:09.184Z,92.10
2017-12-17T15:09:35.402Z,92.57
2017-12-17T15:12:01.568Z,92.65
2017-12-17T15:14:27.722Z,93.15
2017-12-17T15:16:53.929Z,93.16
2017-12-17T15:19:20.187Z,93.60
2017-12-17T15:21:46.388Z,93.40
2017-12-17T15:24:12.623Z,93.28
2017-12-17T15:26:38.786Z,93.28
2017-12-17T15:29:04.995Z,93.29
2017-12-17T15:31:31.171Z,93.68
2017-12-17T15:33:57.373Z,94.07
2017-12-17T15:36:23.586Z,94.53
2017-12-17T15:38:49.758Z,94.83
2017-12-17T15:41:15.932Z,94.99
2017-12-17T15:43:42.116Z,94.94
2017-12-17T15:46:08.288Z,95.13
2017-12-17T15:48:34.494Z,95.02
2017-12-17T15:51:00.722Z,94.08
2017-12-17T15:53:26.887Z,93.67
2017-12-17T15:55:53.071Z,94.25
2017-12-17T15:58:19.395Z,94.84
2017-12-17T16:00:45.569Z,94.84
2017-12-17T16:03:11.770Z,94.79
2017-12-17T16:05:38.002Z,94.34
2017-12-17T16:08:04.185Z,94.22
2017-12-17T16:10:30.378Z,94.52
2017-12-17T16:12:56.605Z,94.58
2017-12-17T16:15:22.788Z,94.28
2017-12-17T16:17:48.965Z,94.34
2017-12-17T16:20:15.238Z,94.08
2017-12-17T16:22:41.430Z,93.88
2017-12-17T16:25:07.593Z,93.89
2017-12-17T16:27:33.808Z,94.07
2017-12-17T16:30:00.197Z,93.96
2017-12-17T16:32:26.382Z,94.08
2017-12-17T16:34:52.594Z,94.01
2017-12-17T16:37:18.788Z,93.97
2017-12-17T16:39:44.951Z,93.93
2017-12-17T16:42:11.290Z,94.61
2017-12-17T16:44:37.467Z,94.39
2017-12-17T16:47:03.671Z,94.55
2017-12-17T16:49:30.016Z,94.75
2017-12-17T16:51:56.213Z,94.80
2017-12-17T16:54:22.416Z,94.43
2017-12-17T16:56:48.681Z,94.30
2017-12-17T16:59:14.866Z,94.31
2017-12-17T17:01:41.050Z,94.74
2017-12-17T17:04:07.270Z,94.62
2017-12-17T17:06:33.691Z,94.67
2017-12-17T17:08:59.889Z,94.49
2017-12-17T17:11:26.070Z,94.53
2017-12-17T17:13:52.293Z,94.62
2017-12-17T17:16:18.456Z,94.17
2017-12-17T17:18:44.637Z,93.95
2017-12-17T17:21:10.864Z,93.94
2017-12-17T17:23:37.033Z,93.82
2017-12-17T17:26:03.227Z,93.97
2017-12-17T17:28:29.449Z,93.42
2017-12-17T17:30:55.621Z,93.71
2017-12-17T17:33:21.944Z,94.05
2017-12-17T17:35:48.168Z,94.25
2017-12-17T17:38:14.423Z,94.66
2017-12-17T17:40:40.612Z,94.91
2017-12-17T17:43:06.930Z,95.16
2017-12-17T17:45:33.073Z,95.02
2017-12-17T17:47:59.283Z,95.09
2017-12-17T17:50:25.497Z,94.84
2017-12-17T17:52:51.681Z,94.65
2017-12-17T17:55:17.862Z,94.79
2017-12-17T17:57:44.080Z,94.97
2017-12-17T18:00:10.246Z,94.72
2017-12-17T18:02:36.426Z,95.10
2017-12-17T18:05:02.636Z,95.17
2017-12-17T18:07:28.817Z,95.40
2017-12-17T18:09:54.997Z,95.30
2017-12-17T18:12:21.241Z,95.29
2017-12-17T18:14:47.422Z,95.28
2017-12-17T18:17:13.634Z,95.18
2017-12-17T18:19:39.845Z,95.32
2017-12-17T18:22:06.013Z,95.12
2017-12-17T18:24:32.215Z,95.11
2017-12-17T18:26:58.411Z,94.98
2017-12-17T18:29:24.597Z,95.07
2017-12-17T18:31:50.774Z,95.02
2017-12-17T18:34:17.009Z,95.13
2017-12-17T18:36:43.184Z,95.15
2017-12-17T18:39:09.402Z,95.24
2017-12-17T18:41:35.628Z,95.38
2017-12-17T18:44:01.815Z,95.00
2017-12-17T18:46:28.038Z,95.04
2017-12-17T18:48:54.258Z,94.67
2017-12-17T18:51:20.429Z,94.86
2017-12-17T18:53:46.611Z,95.54
2017-12-17T18:56:12.830Z,95.86
2017-12-17T18:58:39.005Z,95.92
2017-12-17T19:01:05.173Z,96.01
2017-12-17T19:03:31.397Z,96.05
2017-12-17T19:05:57.603Z,95.83
2017-12-17T19:08:23.763Z,95.82
2017-12-17T19:10:50.022Z,95.76
2017-12-17T19:13:16.186Z,95.86
2017-12-17T19:15:42.351Z,95.78
2017-12-17T19:18:08.558Z,95.43
2017-12-17T19:20:34.822Z,95.65
2017-12-17T19:23:00.999Z,95.34
2017-12-17T19:25:27.320Z,95.11
2017-12-17T19:27:53.558Z,95.01
2017-12-17T19:30:19.739Z,94.62
2017-12-17T19:32:45.930Z,94.58
2017-12-17T19:35:12.097Z,94.46
2017-12-17T19:37:38.338Z,94.67
2017-12-17T19:40:04.548Z,94.45
2017-12-17T19:42:30.841Z,94.11
2017-12-17T19:44:57.020Z,93.72
2017-12-17T19:47:23.217Z,93.70
2017-12-17T19:49:49.386Z,93.61
2017-12-17T19:52:15.613Z,93.56
2017-12-17T19:54:41.968Z,93.60
2017-12-17T19:57:08.163Z,93.90
2017-12-17T19:59:34.433Z,93.79
2017-12-17T20:02:00.742Z,93.80
2017-12-17T20:04:26.914Z,93.82
2017-12-17T20:06:53.081Z,93.87
2017-12-17T20:09:19.292Z,94.05
2017-12-17T20:11:45.498Z,94.13
2017-12-17T20:14:11.825Z,94.28
2017-12-17T20:16:38.035Z,94.45
2017-12-17T20:19:04.234Z,94.65
2017-12-17T20:21:30.414Z,94.63
2017-12-17T20:23:56.640Z,94.27
2017-12-17T20:26:22.822Z,94.03
2017-12-17T20:28:49.004Z,93.81
2017-12-17T20:31:15.390Z,93.58
2017-12-17T20:33:41.569Z,93.55
2017-12-17T20:36:07.785Z,93.92
2017-12-17T20:38:34.173Z,93.61
2017-12-17T20:41:00.525Z,93.31
2017-12-17T20:43:26.703Z,93.10
2017-12-17T20:45:53.080Z,93.17
2017-12-17T20:48:19.399Z,92.93
2017-12-17T20:50:45.577Z,92.68
2017-12-17T20:53:11.781Z,92.86
2017-12-17T20:55:38.000Z,93.15
2017-12-17T20:58:04.207Z,93.51
2017-12-17T21:00:30.446Z,94.28
2017-12-17T21:02:56.769Z,94.43
2017-12-17T21:05:22.939Z,94.64
2017-12-17T21:07:49.141Z,94.82
2017-12-17T21:10:15.306Z,94.97
2017-12-17T21:12:41.474Z,94.73
2017-12-17T21:15:07.738Z,94.50
2017-12-17T21:17:34.133Z,94.35
2017-12-17T21:20:00.362Z,94.25
2017-12-17T21:22:26.595Z,94.01
2017-12-17T21:24:52.778Z,93.93
2017-12-17T21:27:18.990Z,93.70
2017-12-17T21:29:45.240Z,93.35
2017-12-17T21:32:11.425Z,93.27
2017-12-17T21:34:37.604Z,93.32
2017-12-17T21:37:03.851Z,93.40
2017-12-17T21:39:30.040Z,93.42
2017-12-17T21:41:56.246Z,93.76
2017-12-17T21:44:22.461Z,92.93
2017-12-17T21:46:48.675Z,92.97
2017-12-17T21:49:15.129Z,92.85
2017-12-17T21:51:41.340Z,93.10
2017-12-17T21:54:07.521Z,92.91
2017-12-17T21:56:33.756Z,92.84
2017-12-17T21:59:00.020Z,93.02
2017-12-17T22:01:26.192Z,92.80
2017-12-17T22:03:52.667Z,92.63
2017-12-17T22:06:18.894Z,92.78
2017-12-17T22:08:45.079Z,93.00
2017-12-17T22:11:11.393Z,92.92
2017-12-17T22:13:37.604Z,92.95
2017-12-17T22:16:03.900Z,92.78
2017-12-17T22:18:30.078Z,92.89
2017-12-17T22:20:56.510Z,93.10
2017-12-17T22:23:22.689Z,92.45
2017-12-17T22:25:48.882Z,92.62
2017-12-17T22:28:15.089Z,92.46
2017-12-17T22:30:41.418Z,92.56
2017-12-17T22:33:07.627Z,92.70
2017-12-17T22:35:33.868Z,92.91
2017-12-17T22:38:00.063Z,92.12
2017-12-17T22:40:26.267Z,92.39
2017-12-17T22:42:52.515Z,92.47
2017-12-17T22:45:18.701Z,92.36
2017-12-17T22:47:45.027Z,91.87
2017-12-17T22:50:11.227Z,91.51
2017-12-17T22:52:37.399Z,91.28
2017-12-17T22:55:03.600Z,90.79
2017-12-17T22:57:30.299Z,90.99
2017-12-17T22:59:56.545Z,91.03
2017-12-17T23:02:22.817Z,91.32
2017-12-17T23:04:49.235Z,91.36
2017-12-17T23:07:15.468Z,91.17
2017-12-17T23:09:41.697Z,90.99
2017-12-17T23:12:08.130Z,90.56
2017-12-17T23:14:34.339Z,90.73
2017-12-17T23:17:00.554Z,90.89
2017-12-17T23:19:26.812Z,90.94
2017-12-17T23:21:53.044Z,91.39
2017-12-17T23:24:19.225Z,91.72
2017-12-17T23:26:45.502Z,91.05
2017-12-17T23:29:11.686Z,90.72
2017-12-17T23:31:37.869Z,90.73
2017-12-17T23:34:04.125Z,90.89
2017-12-17T23:36:30.895Z,90.67
2017-12-17T23:38:57.414Z,90.96
2017-12-17T23:41:23.638Z,90.92
2017-12-17T23:43:50.013Z,91.01
2017-12-17T23:46:16.566Z,91.17
2017-12-17T23:48:42.989Z,91.31
2017-12-17T23:51:09.208Z,91.31
2017-12-17T23:53:35.426Z,91.27
2017-12-17T23:56:01.677Z,91.24
2017-12-17T23:58:27.879Z,91.33
